createdAt,value
2018-06-19T00:02:31.682Z,45.60
2018-06-19T00:05:04.656Z,46.50
2018-06-19T00:07:37.734Z,46.70
2018-06-19T00:10:10.996Z,46.40
2018-06-19T00:12:44.830Z,47.00
2018-06-19T00:15:17.913Z,49.30
2018-06-19T00:17:51.193Z,49.70
2018-06-19T00:20:24.275Z,49.40
2018-06-19T00:22:57.356Z,50.20
2018-06-19T00:25:30.331Z,48.50
2018-06-19T00:28:03.171Z,49.40
2018-06-19T00:30:36.279Z,48.50
2018-06-19T00:35:54.888Z,51.10
2018-06-19T00:38:28.003Z,48.50
2018-06-19T00:41:01.064Z,48.10
2018-06-19T00:43:35.052Z,49.60
2018-06-19T00:46:09.078Z,50.80
2018-06-19T00:48:42.055Z,46.10
2018-06-19T00:51:15.021Z,45.80
2018-06-19T00:53:48.512Z,46.70
2018-06-19T00:56:57.073Z,44.90
2018-06-19T00:59:30.297Z,44.20
2018-06-19T01:02:04.730Z,44.80
2018-06-19T01:04:38.839Z,42.00
2018-06-19T01:07:13.225Z,42.70
2018-06-19T01:09:47.553Z,42.20
2018-06-19T01:12:20.654Z,42.30
2018-06-19T01:14:53.550Z,42.80
2018-06-19T01:17:27.787Z,43.10
2018-06-19T01:20:01.689Z,40.10
2018-06-19T01:22:34.856Z,40.00
2018-06-19T01:25:08.046Z,40.80
2018-06-19T01:27:41.515Z,41.90
2018-06-19T01:30:14.571Z,42.60
2018-06-19T01:32:47.706Z,42.40
2018-06-19T01:35:23.786Z,41.60
2018-06-19T01:37:57.020Z,43.70
2018-06-19T01:40:31.068Z,40.90
2018-06-19T01:43:04.889Z,40.60
2018-06-19T01:45:38.247Z,40.50
2018-06-19T01:48:11.451Z,39.70
2018-06-19T01:50:44.723Z,40.00
2018-06-19T01:53:17.788Z,40.90
2018-06-19T01:55:50.880Z,41.20
2018-06-19T01:58:24.071Z,41.40
2018-06-19T02:00:57.070Z,41.50
2018-06-19T02:03:30.141Z,41.90
2018-06-19T02:06:03.048Z,40.30
2018-06-19T02:08:36.162Z,40.80
2018-06-19T02:11:09.222Z,41.70
2018-06-19T02:13:42.356Z,42.20
2018-06-19T02:16:15.509Z,41.30
2018-06-19T02:18:48.731Z,41.50
2018-06-19T02:21:21.899Z,42.90
2018-06-19T02:23:54.962Z,40.80
2018-06-19T02:26:28.158Z,41.00
2018-06-19T02:29:01.434Z,42.60
2018-06-19T02:31:34.476Z,42.60
2018-06-19T02:34:07.488Z,44.10
2018-06-19T02:36:40.435Z,44.90
2018-06-19T02:39:14.154Z,46.50
2018-06-19T02:41:47.383Z,47.00
2018-06-19T02:44:20.719Z,46.70
2018-06-19T02:46:53.774Z,48.30
2018-06-19T02:49:26.941Z,48.90
2018-06-19T02:52:00.066Z,48.60
2018-06-19T02:54:34.320Z,48.90
2018-06-19T02:57:08.086Z,48.50
2018-06-19T02:59:41.078Z,49.80
2018-06-19T03:02:13.946Z,50.70
2018-06-19T03:04:46.779Z,51.00
2018-06-19T03:07:19.790Z,51.90
2018-06-19T03:09:52.924Z,53.60
2018-06-19T03:12:25.757Z,51.90
2018-06-19T03:14:58.767Z,52.20
2018-06-19T03:17:32.514Z,54.00
2018-06-19T03:22:56.067Z,55.20
2018-06-19T03:28:19.497Z,57.00
2018-06-19T03:30:52.479Z,57.80
2018-06-19T03:33:25.645Z,58.40
2018-06-19T03:35:59.637Z,58.80
2018-06-19T03:38:32.671Z,60.30
2018-06-19T03:41:06.242Z,60.60
2018-06-19T03:43:39.253Z,61.20
2018-06-19T03:46:12.229Z,62.20
2018-06-19T03:48:45.400Z,62.80
2018-06-19T03:51:18.405Z,63.40
2018-06-19T03:53:53.529Z,63.80
2018-06-19T03:59:09.796Z,63.70
2018-06-19T04:01:43.255Z,65.50
2018-06-19T04:04:16.340Z,67.50
2018-06-19T04:06:50.178Z,69.60
2018-06-19T04:09:23.420Z,69.30
2018-06-19T04:12:00.463Z,70.60
2018-06-19T04:17:21.171Z,71.80
2018-06-19T04:22:35.053Z,72.50
2018-06-19T04:27:49.824Z,74.60
2018-06-19T04:33:06.118Z,75.40
2018-06-19T04:35:39.214Z,77.60
2018-06-19T04:38:12.299Z,78.40
2018-06-19T04:40:45.325Z,78.80
2018-06-19T04:43:19.188Z,81.20
2018-06-19T04:45:52.270Z,80.60
2018-06-19T04:48:25.410Z,81.00
2018-06-19T04:50:58.720Z,81.80
2018-06-19T04:53:31.863Z,83.00
2018-06-19T04:56:04.845Z,83.70
2018-06-19T04:58:37.849Z,83.00
2018-06-19T05:01:10.876Z,84.30
2018-06-19T05:03:43.997Z,84.20
2018-06-19T05:06:17.143Z,84.80
2018-06-19T05:08:50.215Z,84.80
2018-06-19T05:11:23.678Z,86.70
2018-06-19T05:13:56.834Z,85.20
2018-06-19T05:16:30.205Z,87.70
2018-06-19T05:19:03.500Z,86.00
2018-06-19T05:21:36.851Z,86.00
2018-06-19T05:24:10.381Z,87.00
2018-06-19T05:26:45.328Z,86.80
2018-06-19T05:29:18.636Z,87.60
2018-06-19T05:31:51.866Z,87.10
2018-06-19T05:34:25.700Z,87.40
2018-06-19T05:36:59.051Z,87.60
2018-06-19T05:39:35.079Z,87.50
2018-06-19T05:42:08.359Z,87.30
2018-06-19T05:44:41.631Z,87.80
2018-06-19T05:47:15.116Z,87.80
2018-06-19T05:49:50.753Z,88.90
2018-06-19T05:52:23.922Z,88.60
2018-06-19T05:54:56.848Z,89.00
2018-06-19T05:57:29.786Z,89.00
2018-06-19T06:00:07.805Z,89.00
2018-06-19T06:02:40.860Z,88.90
2018-06-19T06:05:13.836Z,88.70
2018-06-19T06:07:47.236Z,89.60
2018-06-19T06:10:20.296Z,89.00
2018-06-19T06:12:53.198Z,89.30
2018-06-19T06:15:26.305Z,88.70
2018-06-19T06:17:59.315Z,88.60
2018-06-19T06:20:32.356Z,89.50
2018-06-19T06:23:05.417Z,90.00
2018-06-19T06:25:38.370Z,89.20
2018-06-19T06:28:11.510Z,90.20
2018-06-19T06:30:44.451Z,90.10
2018-06-19T06:33:17.461Z,90.40
2018-06-19T06:35:51.533Z,90.60
2018-06-19T06:38:25.646Z,90.70
2018-06-19T06:40:59.701Z,91.10
2018-06-19T06:43:33.695Z,90.70
2018-06-19T06:46:06.896Z,90.60
2018-06-19T06:48:40.818Z,91.00
2018-06-19T06:51:15.190Z,91.10
2018-06-19T06:53:48.331Z,90.90
2018-06-19T06:56:21.737Z,91.50
2018-06-19T06:58:54.839Z,91.30
2018-06-19T07:01:27.855Z,91.20
2018-06-19T07:04:00.767Z,91.20
2018-06-19T07:06:34.318Z,91.40
2018-06-19T07:09:09.414Z,91.30
2018-06-19T07:11:42.420Z,91.60
2018-06-19T07:14:15.381Z,91.30
2018-06-19T07:16:48.655Z,91.40
2018-06-19T07:19:22.164Z,91.70
2018-06-19T07:21:55.180Z,91.40
2018-06-19T07:24:28.309Z,91.90
2018-06-19T07:27:01.214Z,92.00
2018-06-19T07:29:34.156Z,92.00
2018-06-19T07:32:07.054Z,92.40
2018-06-19T07:34:39.985Z,92.00
2018-06-19T07:37:13.116Z,92.30
2018-06-19T07:39:46.156Z,92.30
2018-06-19T07:42:19.155Z,92.60
2018-06-19T07:44:52.219Z,92.90
2018-06-19T14:35:37.239Z,99.50
2018-06-19T14:38:10.933Z,99.50
2018-06-19T14:40:47.852Z,99.50
2018-06-19T14:43:21.910Z,99.40
2018-06-19T14:45:55.043Z,98.80
2018-06-19T14:48:28.111Z,97.20
2018-06-19T14:51:01.289Z,95.50
2018-06-19T14:53:35.052Z,96.30
2018-06-19T14:56:08.329Z,96.30
2018-06-19T14:58:42.645Z,96.50
2018-06-19T15:01:15.839Z,95.20
2018-06-19T15:03:49.207Z,94.30
2018-06-19T15:06:22.454Z,93.50
2018-06-19T15:08:55.430Z,93.00
2018-06-19T15:11:28.630Z,92.60
2018-06-19T15:14:01.622Z,93.70
2018-06-19T15:16:34.966Z,92.10
2018-06-19T15:19:08.117Z,92.90
2018-06-19T15:21:41.232Z,92.50
2018-06-19T15:24:14.209Z,93.10
2018-06-19T15:26:47.481Z,92.60
2018-06-19T15:29:20.430Z,92.80
2018-06-19T15:31:53.448Z,93.40
2018-06-19T15:34:27.410Z,93.20
2018-06-19T15:37:00.507Z,93.90
2018-06-19T15:39:33.574Z,94.80
2018-06-19T15:42:06.489Z,94.20
2018-06-19T15:44:39.616Z,94.50
2018-06-19T15:47:12.692Z,94.50
2018-06-19T15:49:45.750Z,94.70
2018-06-19T15:52:18.761Z,95.10
2018-06-19T15:54:51.852Z,95.20
2018-06-19T15:57:24.982Z,94.80
2018-06-19T15:59:58.105Z,94.40
2018-06-19T16:02:31.219Z,93.90
2018-06-19T16:05:04.276Z,94.10
2018-06-19T16:07:41.251Z,94.20
2018-06-19T16:10:14.284Z,93.80
2018-06-19T16:12:47.410Z,93.60
2018-06-19T16:15:20.398Z,94.00
2018-06-19T16:17:53.269Z,94.90
2018-06-19T16:20:26.278Z,94.70
2018-06-19T16:22:59.275Z,93.70
2018-06-19T16:25:32.210Z,94.10
2018-06-19T16:28:05.243Z,93.20
2018-06-19T16:30:38.394Z,93.50
2018-06-19T16:33:11.406Z,93.20
2018-06-19T16:35:44.470Z,93.50
2018-06-19T16:38:17.529Z,93.70
2018-06-19T16:40:50.805Z,93.10
2018-06-19T16:43:24.178Z,93.00
2018-06-19T16:45:57.252Z,93.40
2018-06-19T16:48:30.295Z,93.40
2018-06-19T16:51:03.360Z,93.30
2018-06-19T16:53:36.313Z,93.00
2018-06-19T16:56:09.306Z,93.20
2018-06-19T16:58:42.323Z,93.00
2018-06-19T17:01:15.288Z,93.10
2018-06-19T17:03:48.294Z,92.70
2018-06-19T17:06:21.237Z,93.00
2018-06-19T17:08:54.304Z,92.70
2018-06-19T17:11:27.401Z,92.20
2018-06-19T17:14:00.442Z,92.00
2018-06-19T17:16:33.559Z,91.50
2018-06-19T17:19:06.587Z,91.80
2018-06-19T17:21:39.693Z,91.20
2018-06-19T17:24:12.682Z,91.50
2018-06-19T17:26:45.667Z,91.80
2018-06-19T17:29:18.519Z,92.00
2018-06-19T17:31:51.484Z,91.80
2018-06-19T17:34:24.601Z,91.70
2018-06-19T17:36:57.794Z,91.40
2018-06-19T17:39:31.091Z,91.00
2018-06-19T17:42:04.198Z,90.80
2018-06-19T17:44:37.327Z,90.30
2018-06-19T17:47:11.277Z,91.10
2018-06-19T17:49:44.471Z,91.00
2018-06-19T17:52:17.568Z,90.70
2018-06-19T17:54:50.531Z,90.90
2018-06-19T17:57:23.466Z,90.70
2018-06-19T17:59:56.465Z,90.50
2018-06-19T18:02:29.514Z,90.40
2018-06-19T18:05:02.533Z,90.00
2018-06-19T18:07:35.597Z,89.70
2018-06-19T18:10:08.758Z,89.00
2018-06-19T18:12:41.704Z,89.70
2018-06-19T18:15:14.611Z,90.20
2018-06-19T18:17:47.546Z,89.80
2018-06-19T18:20:20.667Z,89.80
2018-06-19T18:22:53.811Z,89.20
2018-06-19T18:25:26.721Z,88.30
2018-06-19T18:27:59.699Z,87.70
2018-06-19T18:30:32.780Z,88.80
2018-06-19T18:33:05.833Z,88.90
2018-06-19T18:35:38.890Z,87.10
2018-06-19T18:38:11.883Z,87.10
2018-06-19T18:40:44.922Z,86.50
2018-06-19T18:43:17.921Z,87.50
2018-06-19T18:45:51.008Z,85.50
2018-06-19T18:48:24.009Z,85.60
2018-06-19T18:50:56.937Z,84.80
2018-06-19T18:53:30.175Z,83.30
2018-06-19T18:56:03.206Z,83.10
2018-06-19T18:58:36.409Z,83.60
2018-06-19T19:01:09.465Z,84.10
2018-06-19T19:03:44.152Z,83.50
2018-06-19T19:06:17.419Z,82.90
2018-06-19T19:08:50.491Z,80.50
2018-06-19T19:11:23.621Z,82.90
2018-06-19T19:13:56.657Z,81.80
2018-06-19T19:16:33.691Z,80.10
2018-06-19T19:19:08.917Z,79.90
2018-06-19T19:21:42.003Z,78.20
2018-06-19T19:24:15.130Z,78.50
2018-06-19T19:26:52.183Z,77.80
2018-06-19T19:29:29.387Z,78.60
2018-06-19T19:32:02.361Z,80.20
2018-06-19T19:34:35.502Z,79.60
2018-06-19T19:37:12.718Z,78.70
2018-06-19T19:39:45.782Z,78.00
2018-06-19T19:42:18.769Z,77.50
2018-06-19T19:44:51.891Z,76.60
2018-06-19T19:47:29.027Z,78.60
2018-06-19T19:50:02.283Z,76.30
2018-06-19T19:52:35.282Z,75.40
2018-06-19T19:55:08.444Z,77.90
2018-06-19T19:57:45.710Z,74.90
2018-06-19T20:00:21.659Z,75.80
2018-06-19T20:02:54.736Z,75.30
2018-06-19T20:05:28.471Z,75.60
2018-06-19T20:08:01.452Z,74.90
2018-06-19T20:10:34.328Z,75.00
2018-06-19T20:13:07.344Z,72.70
2018-06-19T20:15:40.543Z,73.90
2018-06-19T20:18:13.472Z,73.00
2018-06-19T20:20:47.081Z,74.00
2018-06-19T20:23:20.059Z,70.70
2018-06-19T20:25:53.065Z,72.60
2018-06-19T20:28:26.153Z,70.80
2018-06-19T20:30:59.418Z,70.80
2018-06-19T20:33:32.469Z,72.00
2018-06-19T20:36:05.686Z,67.80
2018-06-19T20:38:38.747Z,69.10
2018-06-19T20:41:11.837Z,70.20
2018-06-19T20:43:44.934Z,69.00
2018-06-19T20:46:18.055Z,66.60
2018-06-19T20:48:50.996Z,68.20
2018-06-19T20:51:23.964Z,65.50
2018-06-19T20:53:57.068Z,67.70
2018-06-19T20:56:30.666Z,65.40
2018-06-19T20:59:03.631Z,68.80
2018-06-19T21:01:36.598Z,64.40
2018-06-19T21:04:09.548Z,66.50
2018-06-19T21:06:43.449Z,66.30
2018-06-19T21:09:16.540Z,65.60
2018-06-19T21:11:49.589Z,64.00
2018-06-19T21:14:22.583Z,64.50
2018-06-19T21:16:55.490Z,63.50
2018-06-19T21:19:28.517Z,66.20
2018-06-19T21:22:01.567Z,64.70
2018-06-19T21:24:34.598Z,59.90
2018-06-19T21:27:07.568Z,62.60
2018-06-19T21:29:40.872Z,62.90
2018-06-19T21:32:13.816Z,60.80
2018-06-19T21:34:46.896Z,61.40
2018-06-19T21:37:19.799Z,63.50
2018-06-19T21:39:52.782Z,59.90
2018-06-19T21:42:25.671Z,58.30
2018-06-19T21:44:58.764Z,62.90
2018-06-19T21:47:32.006Z,59.80
2018-06-19T21:50:04.949Z,61.90
2018-06-19T21:52:37.914Z,58.70
2018-06-19T21:55:10.944Z,60.40
2018-06-19T21:57:43.988Z,56.80
2018-06-19T22:00:17.046Z,59.10
2018-06-19T22:02:50.084Z,57.10
2018-06-19T22:05:23.121Z,58.10
2018-06-19T22:07:56.471Z,56.90
2018-06-19T22:10:29.580Z,56.20
2018-06-19T22:13:03.614Z,57.10
2018-06-19T22:15:37.152Z,57.40
2018-06-19T22:18:12.827Z,57.40
2018-06-19T22:20:46.321Z,56.70
2018-06-19T22:23:19.291Z,53.20
2018-06-19T22:25:53.483Z,53.00
2018-06-19T22:28:28.429Z,54.90
2018-06-19T22:31:01.530Z,51.60
2018-06-19T22:33:34.660Z,52.00
2018-06-19T22:36:07.732Z,52.70
2018-06-19T22:38:43.996Z,54.40
2018-06-19T22:41:17.032Z,54.10
2018-06-19T22:43:50.058Z,52.30
2018-06-19T22:46:23.278Z,52.30
2018-06-19T22:48:56.337Z,52.60
2018-06-19T22:51:30.762Z,51.80
2018-06-19T22:54:04.081Z,50.60
2018-06-19T22:56:37.254Z,49.40
2018-06-19T22:59:10.341Z,48.50
2018-06-19T23:01:43.555Z,49.20
2018-06-19T23:04:16.652Z,48.00
2018-06-19T23:06:51.404Z,49.60
2018-06-19T23:09:24.507Z,48.30
2018-06-19T23:11:59.780Z,48.20
2018-06-19T23:14:34.074Z,48.60
2018-06-19T23:17:07.286Z,46.30
2018-06-19T23:19:40.374Z,50.20
2018-06-19T23:22:13.554Z,50.10
2018-06-19T23:24:46.655Z,47.30
2018-06-19T23:27:19.658Z,49.40
2018-06-19T23:29:52.705Z,47.60
2018-06-19T23:32:25.883Z,48.20
2018-06-19T23:34:58.999Z,48.90
2018-06-19T23:37:31.990Z,48.10
2018-06-19T23:40:05.111Z,46.30
2018-06-19T23:42:38.158Z,47.70
2018-06-19T23:45:11.228Z,47.80
2018-06-19T23:47:45.745Z,45.90
2018-06-19T23:50:18.718Z,45.10
2018-06-19T23:52:51.761Z,46.00
2018-06-19T23:55:24.731Z,47.00
2018-06-19T23:57:57.658Z,45.40
